createdAt,value
2018-10-21T00:00:39.046Z,102061.59
2018-10-21T00:03:08.875Z,102061.47
2018-10-21T00:05:38.711Z,102064.50
2018-10-21T00:08:09.566Z,102063.56
2018-10-21T00:10:39.596Z,102058.94
2018-10-21T00:13:08.990Z,102058.09
2018-10-21T00:15:39.035Z,102060.66
2018-10-21T00:18:09.883Z,102060.25
2018-10-21T00:20:39.545Z,102061.47
2018-10-21T00:23:09.018Z,102056.13
2018-10-21T00:25:38.499Z,102052.45
2018-10-21T00:28:09.030Z,102053.63
2018-10-21T00:30:38.490Z,102055.17
2018-10-21T00:33:08.612Z,102054.16
2018-10-21T00:35:38.513Z,102056.38
2018-10-21T00:38:07.932Z,102053.41
2018-10-21T00:40:37.746Z,102050.50
2018-10-21T00:43:07.234Z,102056.86
2018-10-21T00:45:36.632Z,102057.94
2018-10-21T00:48:07.144Z,102062.14
2018-10-21T00:50:37.960Z,102067.80
2018-10-21T00:53:07.479Z,102069.08
2018-10-21T00:55:37.023Z,102062.04
2018-10-21T00:58:06.632Z,102062.39
2018-10-21T01:00:36.753Z,102065.48
2018-10-21T01:03:06.689Z,102063.99
2018-10-21T01:05:36.205Z,102065.95
2018-10-21T01:08:06.036Z,102061.77
2018-10-21T01:10:35.505Z,102059.88
2018-10-21T01:13:04.881Z,102059.77
2018-10-21T01:15:34.738Z,102062.39
2018-10-21T01:18:04.634Z,102059.58
2018-10-21T01:20:34.204Z,102059.03
2018-10-21T01:23:04.062Z,102059.80
2018-10-21T01:25:33.503Z,102056.16
2018-10-21T01:28:02.919Z,102058.24
2018-10-21T01:30:32.326Z,102057.70
2018-10-21T01:33:01.780Z,102054.14
2018-10-21T01:35:31.173Z,102051.01
2018-10-21T01:38:00.963Z,102056.09
2018-10-21T01:40:40.065Z,102053.35
2018-10-21T01:43:10.729Z,102054.53
2018-10-21T01:45:40.665Z,102055.25
2018-10-21T01:48:11.295Z,102064.44
2018-10-21T01:50:41.068Z,102059.15
2018-10-21T01:53:11.988Z,102064.31
2018-10-21T01:55:41.531Z,102059.23
2018-10-21T01:58:10.985Z,102065.46
2018-10-21T02:00:41.559Z,102067.41
2018-10-21T02:03:11.384Z,102058.37
2018-10-21T02:05:41.653Z,102058.84
2018-10-21T02:08:11.213Z,102060.58
2018-10-21T02:10:40.764Z,102064.81
2018-10-21T02:13:10.701Z,102066.41
2018-10-21T02:15:40.101Z,102063.98
2018-10-21T02:18:09.647Z,102058.01
2018-10-21T02:20:39.120Z,102055.08
2018-10-21T02:23:08.525Z,102056.56
2018-10-21T02:25:37.911Z,102057.58
2018-10-21T02:28:07.391Z,102055.09
2018-10-21T02:30:36.809Z,102052.55
2018-10-21T02:33:06.703Z,102049.12
2018-10-21T02:35:36.713Z,102050.55
2018-10-21T02:38:06.497Z,102053.77
2018-10-21T02:41:52.975Z,102054.71
2018-10-21T02:44:23.254Z,102061.33
2018-10-21T02:46:55.161Z,102060.84
2018-10-21T02:49:25.037Z,102059.44
2018-10-21T02:51:59.749Z,102065.88
2018-10-21T02:54:32.029Z,102063.39
2018-10-21T02:57:01.570Z,102070.91
2018-10-21T02:59:31.021Z,102070.56
2018-10-21T03:02:00.963Z,102075.97
2018-10-21T03:04:30.777Z,102077.53
2018-10-21T03:07:00.275Z,102076.45
2018-10-21T03:09:30.209Z,102078.05
2018-10-21T03:12:00.187Z,102080.22
2018-10-21T03:14:30.269Z,102082.77
2018-10-21T03:17:00.146Z,102084.13
2018-10-21T03:19:29.593Z,102082.96
2018-10-21T03:21:59.486Z,102081.55
2018-10-21T03:24:29.355Z,102071.53
2018-10-21T03:26:58.778Z,102070.64
2018-10-21T03:29:28.201Z,102078.31
2018-10-21T03:31:57.590Z,102076.39
2018-10-21T03:34:27.005Z,102073.68
2018-10-21T03:36:56.465Z,102083.20
2018-10-21T03:39:25.957Z,102078.16
2018-10-21T03:41:55.361Z,102069.59
2018-10-21T03:44:24.957Z,102074.94
2018-10-21T03:46:54.757Z,102073.02
2018-10-21T03:49:24.245Z,102071.88
2018-10-21T03:51:54.484Z,102073.09
2018-10-21T03:54:24.410Z,102071.28
2018-10-21T03:56:53.892Z,102076.90
2018-10-21T03:59:23.695Z,102075.62
2018-10-21T04:01:53.296Z,102076.55
2018-10-21T04:04:23.329Z,102083.90
2018-10-21T04:06:52.940Z,102082.02
2018-10-21T04:09:22.525Z,102082.33
2018-10-21T04:11:51.982Z,102084.85
2018-10-21T04:14:21.476Z,102086.12
2018-10-21T04:16:50.900Z,102086.52
2018-10-21T04:19:20.861Z,102088.76
2018-10-21T04:21:51.030Z,102093.28
2018-10-21T04:24:20.785Z,102094.67
2018-10-21T04:26:50.336Z,102098.72
2018-10-21T04:29:19.816Z,102101.35
2018-10-21T04:31:49.195Z,102101.20
2018-10-21T04:34:18.675Z,102100.98
2018-10-21T04:36:48.172Z,102101.94
2018-10-21T04:39:34.592Z,102098.91
2018-10-21T04:42:03.992Z,102107.78
2018-10-21T04:44:33.415Z,102105.70
2018-10-21T04:47:03.326Z,102103.97
2018-10-21T04:49:32.605Z,102105.74
2018-10-21T04:52:02.450Z,102101.89
2018-10-21T04:54:36.598Z,102107.72
2018-10-21T04:57:07.567Z,102110.92
2018-10-21T04:59:39.474Z,102117.25
2018-10-21T05:02:08.934Z,102116.73
2018-10-21T05:04:38.409Z,102117.77
2018-10-21T05:07:08.364Z,102118.37
2018-10-21T05:09:38.355Z,102113.39
2018-10-21T05:12:07.949Z,102115.70
2018-10-21T05:14:37.776Z,102114.15
2018-10-21T05:17:07.193Z,102117.14
2018-10-21T05:19:36.684Z,102123.04
2018-10-21T05:22:06.855Z,102120.23
2018-10-21T05:24:36.638Z,102119.39
2018-10-21T05:27:07.780Z,102120.00
2018-10-21T05:29:37.244Z,102125.84
2018-10-21T05:32:06.728Z,102124.65
2018-10-21T05:34:36.508Z,102130.48
2018-10-21T05:37:07.037Z,102124.54
2018-10-21T05:39:36.436Z,102131.09
2018-10-21T05:42:06.236Z,102127.23
2018-10-21T05:44:36.036Z,102126.73
2018-10-21T05:47:06.844Z,102134.50
2018-10-21T05:49:36.166Z,102131.16
2018-10-21T05:52:06.123Z,102135.88
2018-10-21T05:54:39.604Z,102142.22
2018-10-21T05:57:09.086Z,102145.73
2018-10-21T05:59:38.452Z,102144.11
2018-10-21T06:02:07.876Z,102145.05
2018-10-21T06:04:37.344Z,102151.98
2018-10-21T06:07:06.782Z,102151.61
2018-10-21T06:09:36.845Z,102159.12
2018-10-21T06:12:07.083Z,102160.58
2018-10-21T06:14:36.501Z,102163.98
2018-10-21T06:17:11.622Z,102167.12
2018-10-21T06:19:46.094Z,102170.73
2018-10-21T06:22:15.626Z,102170.64
2018-10-21T06:24:44.993Z,102177.15
2018-10-21T06:27:14.449Z,102175.63
2018-10-21T06:29:43.842Z,102184.95
2018-10-21T06:32:13.291Z,102185.89
2018-10-21T06:34:42.793Z,102188.99
2018-10-21T06:37:12.910Z,102193.91
2018-10-21T06:39:42.318Z,102191.54
2018-10-21T06:42:12.147Z,102198.25
2018-10-21T06:44:44.196Z,102203.32
2018-10-21T06:47:13.712Z,102206.34
2018-10-21T06:49:43.135Z,102205.95
2018-10-21T06:52:12.932Z,102206.00
2018-10-21T06:54:42.435Z,102208.77
2018-10-21T06:57:12.496Z,102206.45
2018-10-21T06:59:42.144Z,102210.96
2018-10-21T07:02:11.672Z,102211.75
2018-10-21T07:04:41.609Z,102212.13
2018-10-21T07:07:10.964Z,102217.20
2018-10-21T07:09:40.360Z,102217.16
2018-10-21T07:12:09.788Z,102223.40
2018-10-21T07:14:39.797Z,102216.59
2018-10-21T07:17:09.662Z,102226.39
2018-10-21T07:19:39.164Z,102225.08
2018-10-21T07:22:08.706Z,102225.12
2018-10-21T07:24:38.223Z,102227.97
2018-10-21T07:27:07.802Z,102224.22
2018-10-21T07:29:37.143Z,102233.94
2018-10-21T07:32:07.012Z,102228.12
2018-10-21T07:34:36.360Z,102235.29
2018-10-21T07:37:06.036Z,102238.59
2018-10-21T07:39:35.912Z,102236.58
2018-10-21T07:42:05.432Z,102241.55
2018-10-21T07:44:35.222Z,102236.91
2018-10-21T07:47:04.733Z,102238.95
2018-10-21T07:49:34.120Z,102238.79
2018-10-21T07:52:03.656Z,102245.38
2018-10-21T07:54:33.061Z,102242.88
2018-10-21T07:57:02.451Z,102242.99
2018-10-21T07:59:31.871Z,102244.48
2018-10-21T08:02:01.239Z,102244.27
2018-10-21T08:04:30.727Z,102249.67
2018-10-21T08:07:11.175Z,102251.52
2018-10-21T08:09:40.972Z,102256.07
2018-10-21T08:12:10.744Z,102255.74
2018-10-21T08:14:40.227Z,102255.05
2018-10-21T08:17:09.579Z,102251.62
2018-10-21T08:19:39.314Z,102250.03
2018-10-21T08:22:08.773Z,102256.28
2018-10-21T08:24:38.253Z,102254.31
2018-10-21T08:27:07.782Z,102253.17
2018-10-21T08:29:37.643Z,102255.84
2018-10-21T08:32:07.187Z,102250.19
2018-10-21T08:34:36.941Z,102250.25
2018-10-21T08:37:06.714Z,102248.55
2018-10-21T08:39:36.731Z,102246.91
2018-10-21T08:42:06.534Z,102251.86
2018-10-21T08:44:36.284Z,102256.78
2018-10-21T08:47:05.884Z,102249.83
2018-10-21T08:49:35.727Z,102251.68
2018-10-21T08:52:05.891Z,102253.53
2018-10-21T08:54:35.391Z,102248.81
2018-10-21T08:57:05.367Z,102246.26
2018-10-21T08:59:34.824Z,102250.28
2018-10-21T09:02:04.685Z,102248.59
2018-10-21T09:04:34.112Z,102247.37
2018-10-21T09:07:03.719Z,102244.83
2018-10-21T09:09:33.172Z,102244.05
2018-10-21T09:12:02.651Z,102243.22
2018-10-21T09:14:32.115Z,102237.10
2018-10-21T09:17:01.598Z,102244.67
2018-10-21T09:19:31.097Z,102239.45
2018-10-21T09:22:00.920Z,102246.13
2018-10-21T09:24:30.777Z,102244.84
2018-10-21T09:27:00.263Z,102248.45
2018-10-21T09:29:30.151Z,102248.09
2018-10-21T09:32:00.164Z,102245.06
2018-10-21T09:34:29.976Z,102250.05
2018-10-21T09:36:59.587Z,102242.65
2018-10-21T09:39:29.049Z,102246.65
2018-10-21T09:41:58.628Z,102243.12
2018-10-21T09:44:28.155Z,102241.86
2018-10-21T09:46:57.570Z,102242.78
2018-10-21T09:49:27.096Z,102247.27
2018-10-21T09:51:56.539Z,102242.95
2018-10-21T09:54:26.071Z,102239.95
2018-10-21T09:56:55.576Z,102242.27
2018-10-21T09:59:24.985Z,102234.38
2018-10-21T10:01:59.635Z,102233.98
2018-10-21T10:04:29.207Z,102233.59
2018-10-21T10:06:58.677Z,102231.82
2018-10-21T10:09:28.502Z,102225.20
2018-10-21T10:11:57.909Z,102223.89
2018-10-21T10:14:27.779Z,102218.98
2018-10-21T10:16:57.580Z,102215.44
2018-10-21T10:19:27.035Z,102216.28
2018-10-21T10:21:57.061Z,102212.14
2018-10-21T10:24:26.824Z,102218.09
2018-10-21T10:26:56.596Z,102214.92
2018-10-21T10:29:26.060Z,102210.48
2018-10-21T10:31:55.863Z,102205.86
2018-10-21T10:34:25.745Z,102204.88
2018-10-21T10:36:55.246Z,102198.97
2018-10-21T10:39:25.066Z,102198.47
2018-10-21T10:41:54.973Z,102191.36
2018-10-21T10:44:24.354Z,102190.04
2018-10-21T10:46:54.216Z,102185.59
2018-10-21T10:49:24.861Z,102172.70
2018-10-21T10:51:54.732Z,102180.97
2018-10-21T10:54:24.208Z,102176.80
2018-10-21T10:56:54.195Z,102180.70
2018-10-21T10:59:23.859Z,102174.84
2018-10-21T11:01:53.297Z,102171.80
2018-10-21T11:04:22.919Z,102170.91
2018-10-21T11:06:52.505Z,102172.69
2018-10-21T11:09:22.028Z,102172.33
2018-10-21T11:11:51.570Z,102179.09
2018-10-21T11:14:21.401Z,102174.34
2018-10-21T11:16:50.963Z,102183.38
2018-10-21T11:19:23.962Z,102180.36
2018-10-21T11:21:53.511Z,102172.43
2018-10-21T11:24:22.947Z,102178.64
2018-10-21T11:26:52.843Z,102174.59
2018-10-21T11:29:22.425Z,102168.77
2018-10-21T11:31:52.363Z,102173.13
2018-10-21T11:34:21.911Z,102165.50
2018-10-21T11:36:51.456Z,102168.11
2018-10-21T11:39:20.884Z,102163.17
2018-10-21T11:41:50.864Z,102164.44
2018-10-21T11:44:20.417Z,102160.85
2018-10-21T11:46:50.282Z,102159.89
2018-10-21T11:49:20.181Z,102152.25
2018-10-21T11:51:50.106Z,102148.70
2018-10-21T11:54:19.632Z,102148.57
2018-10-21T11:56:49.577Z,102149.72
2018-10-21T11:59:19.435Z,102142.00
2018-10-21T12:01:48.925Z,102143.97
2018-10-21T12:04:18.335Z,102141.75
2018-10-21T12:06:48.033Z,102140.45
2018-10-21T12:09:17.432Z,102133.94
2018-10-21T12:11:46.919Z,102131.44
2018-10-21T12:14:16.772Z,102138.48
2018-10-21T12:16:46.227Z,102132.28
2018-10-21T12:19:16.068Z,102127.75
2018-10-21T12:21:45.862Z,102130.19
2018-10-21T12:24:15.452Z,102129.38
2018-10-21T12:26:44.869Z,102130.28
2018-10-21T12:29:14.388Z,102128.42
2018-10-21T12:31:44.070Z,102125.22
2018-10-21T12:34:22.978Z,102119.91
2018-10-21T12:37:07.062Z,102126.67
2018-10-21T12:39:42.331Z,102130.80
2018-10-21T12:42:15.904Z,102123.80
2018-10-21T12:44:50.717Z,102122.29
2018-10-21T12:47:22.602Z,102125.73
2018-10-21T12:49:56.416Z,102117.24
2018-10-21T12:52:26.140Z,102114.48
2018-10-21T12:54:56.323Z,102103.10
2018-10-21T12:57:26.008Z,102116.98
2018-10-21T12:59:55.732Z,102114.42
2018-10-21T13:02:25.732Z,102117.08
2018-10-21T13:04:56.485Z,102112.56
2018-10-21T13:07:25.972Z,102108.98
2018-10-21T13:09:55.953Z,102110.78
2018-10-21T13:12:25.606Z,102110.08
2018-10-21T13:14:55.469Z,102105.84
2018-10-21T13:17:25.745Z,102102.47
2018-10-21T13:19:55.299Z,102108.30
2018-10-21T13:22:25.817Z,102102.54
2018-10-21T13:24:55.635Z,102099.04
2018-10-21T13:27:25.704Z,102099.50
2018-10-21T13:29:55.738Z,102091.14
2018-10-21T13:32:26.126Z,102090.27
2018-10-21T13:34:55.905Z,102088.98
2018-10-21T13:37:27.534Z,102088.99
2018-10-21T13:39:57.633Z,102084.19
2018-10-21T13:42:27.089Z,102088.72
2018-10-21T13:44:57.973Z,102084.78
2018-10-21T13:47:27.659Z,102083.75
2018-10-21T13:49:57.601Z,102087.73
2018-10-21T13:52:27.488Z,102082.02
2018-10-21T13:54:57.084Z,102082.41
2018-10-21T13:57:26.968Z,102092.16
2018-10-21T13:59:56.464Z,102089.51
2018-10-21T14:02:26.338Z,102091.27
2018-10-21T14:04:56.289Z,102086.02
2018-10-21T14:07:25.941Z,102087.34
2018-10-21T14:09:55.701Z,102086.81
2018-10-21T14:12:25.572Z,102088.10
2018-10-21T14:14:55.449Z,102089.86
2018-10-21T14:17:25.348Z,102085.89
2018-10-21T14:19:55.324Z,102084.09
2018-10-21T14:22:25.223Z,102085.44
2018-10-21T14:24:54.795Z,102080.59
2018-10-21T14:27:24.688Z,102082.38
2018-10-21T14:29:54.536Z,102078.88
2018-10-21T14:32:24.003Z,102076.28
2018-10-21T14:34:53.791Z,102087.84
2018-10-21T14:37:23.767Z,102071.98
2018-10-21T14:39:53.643Z,102078.23
2018-10-21T14:42:23.263Z,102076.97
2018-10-21T14:44:53.087Z,102072.14
2018-10-21T14:47:22.752Z,102071.72
2018-10-21T14:49:53.204Z,102068.21
2018-10-21T14:52:22.664Z,102070.45
2018-10-21T14:54:52.069Z,102061.19
2018-10-21T14:57:22.466Z,102065.61
2018-10-21T14:59:53.873Z,102060.73
2018-10-21T15:02:23.469Z,102062.97
2018-10-21T15:04:53.071Z,102056.36
2018-10-21T15:07:23.630Z,102055.90
2018-10-21T15:09:53.331Z,102053.25
2018-10-21T15:12:23.380Z,102053.68
2018-10-21T15:14:53.333Z,102045.75
2018-10-21T15:17:22.864Z,102045.31
2018-10-21T15:19:52.737Z,102047.07
2018-10-21T15:22:22.750Z,102052.80
2018-10-21T15:24:52.407Z,102045.74
2018-10-21T15:27:21.904Z,102044.86
2018-10-21T15:29:51.507Z,102044.44
2018-10-21T15:32:21.534Z,102044.41
2018-10-21T15:34:51.429Z,102041.77
2018-10-21T15:37:21.001Z,102040.85
2018-10-21T15:39:51.180Z,102043.05
2018-10-21T15:42:21.482Z,102048.73
2018-10-21T15:44:50.952Z,102044.72
2018-10-21T15:47:20.827Z,102053.97
2018-10-21T15:49:50.361Z,102058.79
2018-10-21T15:52:19.841Z,102053.84
2018-10-21T15:54:49.301Z,102054.22
2018-10-21T15:57:18.843Z,102053.75
2018-10-21T15:59:48.741Z,102059.89
2018-10-21T16:02:18.413Z,102066.49
2018-10-21T16:04:47.929Z,102064.66
2018-10-21T16:07:17.381Z,102072.96
2018-10-21T16:09:46.803Z,102069.84
2018-10-21T16:12:16.441Z,102071.54
2018-10-21T16:14:45.955Z,102071.95
2018-10-21T16:17:15.842Z,102070.15
2018-10-21T16:19:45.342Z,102079.36
2018-10-21T16:22:15.205Z,102075.69
2018-10-21T16:24:44.577Z,102077.79
2018-10-21T16:27:13.977Z,102077.22
2018-10-21T16:29:43.843Z,102075.77
2018-10-21T16:32:13.384Z,102082.31
2018-10-21T16:34:43.156Z,102075.64
2018-10-21T16:37:12.899Z,102070.23
2018-10-21T16:39:42.382Z,102071.91
2018-10-21T16:42:13.069Z,102068.73
2018-10-21T16:44:42.920Z,102073.91
2018-10-21T16:47:12.735Z,102075.11
2018-10-21T16:49:42.219Z,102070.20
2018-10-21T16:52:12.038Z,102076.21
2018-10-21T16:54:41.624Z,102077.84
2018-10-21T16:57:11.032Z,102083.06
2018-10-21T16:59:41.021Z,102081.61
2018-10-21T17:02:10.858Z,102077.55
2018-10-21T17:04:40.289Z,102078.75
2018-10-21T17:07:09.837Z,102082.17
2018-10-21T17:09:39.671Z,102079.91
2018-10-21T17:12:09.510Z,102080.68
2018-10-21T17:14:39.495Z,102078.42
2018-10-21T17:17:09.460Z,102085.77
2018-10-21T17:19:39.458Z,102082.62
2018-10-21T17:22:09.800Z,102077.23
2018-10-21T17:24:39.146Z,102080.75
2018-10-21T17:27:08.886Z,102074.56
2018-10-21T17:29:38.320Z,102079.38
2018-10-21T17:32:08.113Z,102077.14
2018-10-21T17:34:37.931Z,102070.98
2018-10-21T17:37:07.973Z,102075.70
2018-10-21T17:39:37.587Z,102075.55
2018-10-21T17:42:07.821Z,102071.00
2018-10-21T17:44:37.442Z,102072.19
2018-10-21T17:47:06.939Z,102078.63
2018-10-21T17:49:36.528Z,102075.50
2018-10-21T17:52:06.562Z,102073.41
2018-10-21T17:54:36.294Z,102074.98
2018-10-21T17:57:05.811Z,102077.16
2018-10-21T17:59:36.071Z,102078.66
2018-10-21T18:02:05.908Z,102084.61
2018-10-21T18:04:35.705Z,102078.67
2018-10-21T18:07:06.462Z,102079.42
2018-10-21T18:09:36.119Z,102079.28
2018-10-21T18:12:06.444Z,102086.63
2018-10-21T18:14:36.161Z,102082.61
2018-10-21T18:17:06.338Z,102084.20
2018-10-21T18:19:36.098Z,102084.09
2018-10-21T18:22:06.274Z,102083.11
2018-10-21T18:24:36.171Z,102086.98
2018-10-21T18:27:06.951Z,102089.50
2018-10-21T18:29:36.950Z,102087.25
2018-10-21T18:32:07.216Z,102087.67
2018-10-21T18:34:36.811Z,102084.20
2018-10-21T18:37:07.391Z,102083.61
2018-10-21T18:39:36.798Z,102087.09
2018-10-21T18:42:06.653Z,102090.45
2018-10-21T18:44:36.138Z,102085.11
2018-10-21T18:47:06.915Z,102083.83
2018-10-21T18:49:36.515Z,102087.35
2018-10-21T18:52:06.489Z,102087.27
2018-10-21T18:54:37.542Z,102081.47
2018-10-21T18:57:07.122Z,102088.03
2018-10-21T18:59:38.033Z,102087.95
2018-10-21T19:02:08.423Z,102089.19
2018-10-21T19:04:38.017Z,102086.51
2018-10-21T19:07:08.987Z,102088.67
2018-10-21T19:09:38.444Z,102082.48
2018-10-21T19:12:08.077Z,102090.75
2018-10-21T19:14:37.572Z,102091.94
2018-10-21T19:17:07.633Z,102086.89
2018-10-21T19:19:37.469Z,102090.63
2018-10-21T19:22:07.038Z,102089.91
2018-10-21T19:24:36.937Z,102092.39
2018-10-21T19:27:07.234Z,102089.22
2018-10-21T19:29:36.621Z,102086.67
2018-10-21T19:32:07.196Z,102089.62
2018-10-21T19:34:36.689Z,102083.83
2018-10-21T19:37:06.340Z,102090.48
2018-10-21T19:39:35.822Z,102092.72
2018-10-21T19:42:05.739Z,102089.03
2018-10-21T19:44:35.177Z,102084.91
2018-10-21T19:47:04.714Z,102087.16
2018-10-21T19:49:34.177Z,102086.82
2018-10-21T19:52:03.672Z,102085.61
2018-10-21T19:54:32.996Z,102086.45
2018-10-21T19:57:02.782Z,102083.12
2018-10-21T19:59:32.619Z,102081.75
2018-10-21T20:02:02.038Z,102081.29
2018-10-21T20:04:31.532Z,102082.47
2018-10-21T20:07:01.348Z,102084.20
2018-10-21T20:09:30.801Z,102078.02
2018-10-21T20:12:00.589Z,102084.53
2018-10-21T20:14:30.041Z,102078.44
2018-10-21T20:16:59.441Z,102076.42
2018-10-21T20:19:29.219Z,102077.22
2018-10-21T20:21:59.149Z,102077.63
2018-10-21T20:24:28.527Z,102074.92
2018-10-21T20:26:57.900Z,102076.28
2018-10-21T20:29:27.591Z,102071.88
2018-10-21T20:31:57.009Z,102073.48
2018-10-21T20:34:26.499Z,102074.36
2018-10-21T20:36:56.249Z,102072.12
2018-10-21T20:39:26.151Z,102068.88
2018-10-21T20:41:55.935Z,102066.25
2018-10-21T20:44:25.727Z,102062.13
2018-10-21T20:46:55.457Z,102060.59
2018-10-21T20:49:24.880Z,102059.56
2018-10-21T20:51:54.347Z,102063.08
2018-10-21T20:54:27.782Z,102067.16
2018-10-21T20:56:57.377Z,102063.69
2018-10-21T20:59:26.807Z,102065.89
2018-10-21T21:01:56.246Z,102059.75
2018-10-21T21:04:26.445Z,102066.69
2018-10-21T21:06:56.174Z,102071.08
2018-10-21T21:09:25.673Z,102065.38
2018-10-21T21:11:55.525Z,102060.08
2018-10-21T21:14:25.348Z,102056.94
2018-10-21T21:16:54.768Z,102059.56
2018-10-21T21:19:25.292Z,102055.54
2018-10-21T21:21:55.119Z,102056.80
2018-10-21T21:24:24.894Z,102052.62
2018-10-21T21:26:54.320Z,102058.72
2018-10-21T21:29:24.085Z,102050.66
2018-10-21T21:31:53.532Z,102055.86
2018-10-21T21:34:23.359Z,102055.86
2018-10-21T21:36:53.152Z,102058.44
2018-10-21T21:39:24.685Z,102054.97
2018-10-21T21:41:54.432Z,102052.77
2018-10-21T21:44:24.810Z,102047.89
2018-10-21T21:46:54.622Z,102044.33
2018-10-21T21:49:33.648Z,102041.62
2018-10-21T21:52:03.482Z,102045.79
2018-10-21T21:54:32.856Z,102038.77
2018-10-21T21:57:02.433Z,102036.09
2018-10-21T21:59:32.272Z,102031.64
2018-10-21T22:02:01.984Z,102031.59
2018-10-21T22:04:31.700Z,102034.22
2018-10-21T22:07:01.654Z,102035.02
2018-10-21T22:09:31.098Z,102035.11
2018-10-21T22:12:00.640Z,102034.31
2018-10-21T22:14:30.399Z,102033.98
2018-10-21T22:17:00.562Z,102029.59
2018-10-21T22:19:30.314Z,102026.44
2018-10-21T22:21:59.684Z,102026.86
2018-10-21T22:24:29.439Z,102023.34
2018-10-21T22:26:58.891Z,102029.44
2018-10-21T22:29:28.327Z,102027.66
2018-10-21T22:31:58.192Z,102027.58
2018-10-21T22:34:27.962Z,102025.38
2018-10-21T22:36:57.412Z,102026.20
2018-10-21T22:39:27.248Z,102021.38
2018-10-21T22:41:57.018Z,102021.77
2018-10-21T22:44:26.438Z,102025.27
2018-10-21T22:46:55.796Z,102025.31
2018-10-21T22:49:25.217Z,102027.94
2018-10-21T22:51:54.696Z,102026.16
2018-10-21T22:54:24.489Z,102024.89
2018-10-21T22:56:53.946Z,102026.45
2018-10-21T22:59:23.371Z,102026.30
2018-10-21T23:01:53.227Z,102024.94
2018-10-21T23:04:23.072Z,102028.40
2018-10-21T23:06:52.760Z,102023.17
2018-10-21T23:09:22.247Z,102020.48
2018-10-21T23:11:52.045Z,102019.55
2018-10-21T23:14:21.478Z,102026.72
2018-10-21T23:16:51.236Z,102022.74
2018-10-21T23:19:38.128Z,102020.55
2018-10-21T23:22:08.041Z,102016.51
2018-10-21T23:24:38.283Z,102017.67
2018-10-21T23:27:08.293Z,102019.87
2018-10-21T23:29:38.810Z,102017.20
2018-10-21T23:32:08.647Z,102020.34
2018-10-21T23:34:38.522Z,102016.78
2018-10-21T23:37:07.963Z,102019.58
2018-10-21T23:39:37.447Z,102016.24
2018-10-21T23:42:06.928Z,102013.84
2018-10-21T23:44:36.313Z,102007.88
2018-10-21T23:47:05.835Z,102005.52
2018-10-21T23:49:35.735Z,102009.70
2018-10-21T23:52:06.357Z,102010.87
2018-10-21T23:54:35.771Z,102005.15
2018-10-21T23:57:06.354Z,102015.11
2018-10-21T23:59:37.307Z,102001.95
